Main page
METAR-TAF:

METAR-TAF

Airports :

Aurillac – Tronquières Airport

Aurillac, France

latitude: 44-53N, longitude: 002-25E, elevation: 639 m

Current weather observation

The report was made 44 minutes ago, at 18:00 UTC
Wind 6 kt from the East/Southeast
Temperature 0°C
Humidity 80%
Pressure 1000 hPa
Visibility 10 km or more
no clouds below 1500 m and no cumulonimbus

METAR: LFLW 191800Z AUTO 11006KT CAVOK 00/M03 Q1000

Time: 19:44 (18:44 UTC)

Forecast

The report was made 4 hours and 44 minutes ago, at 14:00 UTC
Forecast valid from 19 at 15 UTC to 19 at 24 UTC
Wind 6 kt from the East/Southeast
Visibility 10 km or more
Scattered clouds at a height of 5500 ft
Becoming
from 19 at 18 UTC to 19 at 21 UTC
Broken clouds at a height of 3000 ft

TAF: LFLW 191400Z 1915/1924 11006KT 9999 SCT055 BECMG 1918/1921 BKN030

Weather observations and forecasts of more than 4000 airports (METAR and TAF reports).

The available stations are represented by yellow and red dots on the map.

Hover mouse over dot to see the name of the station.

Then click to see weather observations and forecasts.

To change the map : click on the green buttons with a black cross to zoom in, on the green button with a dash to zoom out, or on the green arrows for adjacent maps.


METAR-TAF: